sensor_id;sensor_type;location;lat;lon;timestamp;P1;durP1;ratioP1;P2;durP2;ratioP2
41327;SDS011;27075;47.636;-2.058;2022-11-15T00:00:10;3.35;;;2.78;;
41327;SDS011;27075;47.636;-2.058;2022-11-15T00:05:02;7.70;;;2.38;;
41327;SDS011;27075;47.636;-2.058;2022-11-15T00:07:28;7.07;;;3.88;;
41327;SDS011;27075;47.636;-2.058;2022-11-15T00:09:54;5.63;;;3.00;;
41327;SDS011;27075;47.636;-2.058;2022-11-15T00:12:20;5.75;;;3.88;;
41327;SDS011;27075;47.636;-2.058;2022-11-15T00:14:46;3.50;;;2.30;;
41327;SDS011;27075;47.636;-2.058;2022-11-15T00:17:12;5.53;;;3.40;;
41327;SDS011;27075;47.636;-2.058;2022-11-15T00:19:37;8.25;;;2.83;;
41327;SDS011;27075;47.636;-2.058;2022-11-15T00:22:03;3.17;;;2.08;;
41327;SDS011;27075;47.636;-2.058;2022-11-15T00:24:29;3.17;;;2.85;;
41327;SDS011;27075;47.636;-2.058;2022-11-15T00:26:55;6.40;;;2.53;;
41327;SDS011;27075;47.636;-2.058;2022-11-15T00:29:21;3.53;;;2.60;;
41327;SDS011;27075;47.636;-2.058;2022-11-15T00:31:47;3.55;;;2.60;;
41327;SDS011;27075;47.636;-2.058;2022-11-15T00:34:13;6.82;;;2.58;;
41327;SDS011;27075;47.636;-2.058;2022-11-15T00:36:39;4.78;;;2.85;;
41327;SDS011;27075;47.636;-2.058;2022-11-15T00:39:05;3.38;;;2.22;;
41327;SDS011;27075;47.636;-2.058;2022-11-15T00:41:31;2.50;;;2.15;;
41327;SDS011;27075;47.636;-2.058;2022-11-15T00:43:57;3.97;;;2.42;;
41327;SDS011;27075;47.636;-2.058;2022-11-15T00:46:23;4.72;;;2.53;;
41327;SDS011;27075;47.636;-2.058;2022-11-15T00:48:49;4.95;;;2.50;;
41327;SDS011;27075;47.636;-2.058;2022-11-15T00:51:15;6.07;;;2.75;;
41327;SDS011;27075;47.636;-2.058;2022-11-15T00:53:41;7.32;;;2.25;;
41327;SDS011;27075;47.636;-2.058;2022-11-15T00:56:07;5.65;;;2.63;;
41327;SDS011;27075;47.636;-2.058;2022-11-15T00:58:33;6.30;;;2.95;;
41327;SDS011;27075;47.636;-2.058;2022-11-15T01:01:10;6.82;;;2.80;;
41327;SDS011;27075;47.636;-2.058;2022-11-15T01:03:37;5.82;;;4.15;;
41327;SDS011;27075;47.636;-2.058;2022-11-15T01:06:03;3.00;;;2.35;;
41327;SDS011;27075;47.636;-2.058;2022-11-15T01:10:59;4.95;;;2.33;;
41327;SDS011;27075;47.636;-2.058;2022-11-15T01:13:25;4.32;;;3.03;;
41327;SDS011;27075;47.636;-2.058;2022-11-15T01:15:51;7.78;;;3.08;;
41327;SDS011;27075;47.636;-2.058;2022-11-15T01:18:17;7.35;;;3.28;;
41327;SDS011;27075;47.636;-2.058;2022-11-15T01:20:43;4.63;;;2.67;;
41327;SDS011;27075;47.636;-2.058;2022-11-15T01:23:09;4.05;;;2.70;;
41327;SDS011;27075;47.636;-2.058;2022-11-15T01:28:01;7.53;;;2.47;;
41327;SDS011;27075;47.636;-2.058;2022-11-15T01:30:27;7.50;;;2.55;;
41327;SDS011;27075;47.636;-2.058;2022-11-15T01:32:53;4.22;;;1.95;;
41327;SDS011;27075;47.636;-2.058;2022-11-15T01:35:19;8.48;;;2.55;;
41327;SDS011;27075;47.636;-2.058;2022-11-15T01:37:45;2.60;;;1.73;;
41327;SDS011;27075;47.636;-2.058;2022-11-15T01:40:11;7.63;;;2.53;;
41327;SDS011;27075;47.636;-2.058;2022-11-15T01:42:38;4.30;;;2.47;;
41327;SDS011;27075;47.636;-2.058;2022-11-15T01:45:04;3.17;;;2.45;;
41327;SDS011;27075;47.636;-2.058;2022-11-15T01:47:34;4.60;;;2.78;;
41327;SDS011;27075;47.636;-2.058;2022-11-15T01:50:10;3.85;;;2.60;;
41327;SDS011;27075;47.636;-2.058;2022-11-15T01:52:38;6.63;;;2.33;;
41327;SDS011;27075;47.636;-2.058;2022-11-15T01:55:06;3.85;;;2.80;;
41327;SDS011;27075;47.636;-2.058;2022-11-15T01:57:33;5.45;;;1.98;;
41327;SDS011;27075;47.636;-2.058;2022-11-15T01:59:59;3.63;;;2.03;;
41327;SDS011;27075;47.636;-2.058;2022-11-15T02:02:26;5.68;;;2.65;;
41327;SDS011;27075;47.636;-2.058;2022-11-15T02:07:19;6.20;;;1.98;;
41327;SDS011;27075;47.636;-2.058;2022-11-15T02:09:46;4.43;;;2.40;;
41327;SDS011;27075;47.636;-2.058;2022-11-15T02:12:13;3.72;;;2.25;;
41327;SDS011;27075;47.636;-2.058;2022-11-15T02:14:41;7.05;;;2.83;;
41327;SDS011;27075;47.636;-2.058;2022-11-15T02:20:08;4.43;;;2.50;;
41327;SDS011;27075;47.636;-2.058;2022-11-15T02:22:51;3.72;;;2.50;;
41327;SDS011;27075;47.636;-2.058;2022-11-15T02:30:52;4.90;;;2.40;;
41327;SDS011;27075;47.636;-2.058;2022-11-15T02:38:22;8.88;;;3.03;;
41327;SDS011;27075;47.636;-2.058;2022-11-15T02:40:56;6.38;;;2.38;;
41327;SDS011;27075;47.636;-2.058;2022-11-15T02:43:25;5.65;;;2.67;;
41327;SDS011;27075;47.636;-2.058;2022-11-15T02:48:41;3.28;;;1.90;;
41327;SDS011;27075;47.636;-2.058;2022-11-15T02:51:08;6.10;;;2.72;;
41327;SDS011;27075;47.636;-2.058;2022-11-15T02:56:01;2.60;;;2.40;;
41327;SDS011;27075;47.636;-2.058;2022-11-15T02:58:32;7.10;;;2.92;;
41327;SDS011;27075;47.636;-2.058;2022-11-15T03:01:19;5.43;;;2.65;;
41327;SDS011;27075;47.636;-2.058;2022-11-15T03:09:09;2.92;;;1.98;;
41327;SDS011;27075;47.636;-2.058;2022-11-15T03:11:38;6.03;;;2.30;;
41327;SDS011;27075;47.636;-2.058;2022-11-15T03:16:49;3.05;;;2.20;;
41327;SDS011;27075;47.636;-2.058;2022-11-15T03:19:23;11.55;;;2.95;;
41327;SDS011;27075;47.636;-2.058;2022-11-15T03:21:51;5.68;;;2.22;;
41327;SDS011;27075;47.636;-2.058;2022-11-15T03:24:18;7.13;;;2.58;;
41327;SDS011;27075;47.636;-2.058;2022-11-15T03:26:45;3.65;;;2.55;;
41327;SDS011;27075;47.636;-2.058;2022-11-15T03:29:13;9.15;;;2.72;;
41327;SDS011;27075;47.636;-2.058;2022-11-15T03:31:41;6.60;;;2.35;;
41327;SDS011;27075;47.636;-2.058;2022-11-15T03:34:19;6.28;;;3.08;;
41327;SDS011;27075;47.636;-2.058;2022-11-15T03:36:45;7.60;;;2.50;;
41327;SDS011;27075;47.636;-2.058;2022-11-15T03:39:12;8.02;;;2.85;;
41327;SDS011;27075;47.636;-2.058;2022-11-15T03:41:40;8.57;;;3.42;;
41327;SDS011;27075;47.636;-2.058;2022-11-15T03:44:13;4.30;;;2.53;;
41327;SDS011;27075;47.636;-2.058;2022-11-15T03:46:54;7.60;;;2.80;;
41327;SDS011;27075;47.636;-2.058;2022-11-15T03:49:25;3.83;;;1.83;;
41327;SDS011;27075;47.636;-2.058;2022-11-15T03:51:52;7.10;;;2.25;;
41327;SDS011;27075;47.636;-2.058;2022-11-15T03:56:44;7.22;;;2.88;;
41327;SDS011;27075;47.636;-2.058;2022-11-15T03:59:10;5.85;;;3.17;;
41327;SDS011;27075;47.636;-2.058;2022-11-15T04:04:02;4.10;;;2.33;;
41327;SDS011;27075;47.636;-2.058;2022-11-15T04:06:28;3.50;;;2.38;;
41327;SDS011;27075;47.636;-2.058;2022-11-15T04:08:54;4.15;;;2.63;;
41327;SDS011;27075;47.636;-2.058;2022-11-15T04:11:20;5.68;;;3.35;;
41327;SDS011;27075;47.636;-2.058;2022-11-15T04:13:46;4.75;;;2.30;;
41327;SDS011;27075;47.636;-2.058;2022-11-15T04:16:12;4.18;;;2.20;;
41327;SDS011;27075;47.636;-2.058;2022-11-15T04:18:38;4.10;;;2.47;;
41327;SDS011;27075;47.636;-2.058;2022-11-15T04:21:04;4.78;;;2.22;;
41327;SDS011;27075;47.636;-2.058;2022-11-15T04:23:49;8.32;;;2.50;;
41327;SDS011;27075;47.636;-2.058;2022-11-15T04:26:19;3.55;;;2.42;;
41327;SDS011;27075;47.636;-2.058;2022-11-15T04:28:46;6.10;;;2.30;;
41327;SDS011;27075;47.636;-2.058;2022-11-15T04:31:31;5.57;;;2.67;;
41327;SDS011;27075;47.636;-2.058;2022-11-15T04:36:23;2.92;;;2.67;;
41327;SDS011;27075;47.636;-2.058;2022-11-15T04:39:07;3.88;;;2.60;;
41327;SDS011;27075;47.636;-2.058;2022-11-15T04:41:33;4.85;;;2.58;;
41327;SDS011;27075;47.636;-2.058;2022-11-15T04:43:59;3.25;;;2.08;;
41327;SDS011;27075;47.636;-2.058;2022-11-15T04:46:25;5.30;;;2.45;;
41327;SDS011;27075;47.636;-2.058;2022-11-15T04:51:17;5.32;;;2.75;;
41327;SDS011;27075;47.636;-2.058;2022-11-15T04:53:43;2.50;;;2.13;;
41327;SDS011;27075;47.636;-2.058;2022-11-15T04:56:09;4.13;;;2.58;;
41327;SDS011;27075;47.636;-2.058;2022-11-15T05:01:08;4.75;;;2.85;;
41327;SDS011;27075;47.636;-2.058;2022-11-15T05:03:34;4.65;;;2.53;;
41327;SDS011;27075;47.636;-2.058;2022-11-15T05:06:19;5.18;;;2.60;;
41327;SDS011;27075;47.636;-2.058;2022-11-15T05:08:45;5.60;;;2.60;;
41327;SDS011;27075;47.636;-2.058;2022-11-15T05:11:11;4.80;;;3.00;;
41327;SDS011;27075;47.636;-2.058;2022-11-15T05:13:37;4.90;;;3.25;;
41327;SDS011;27075;47.636;-2.058;2022-11-15T05:16:03;4.30;;;2.15;;
41327;SDS011;27075;47.636;-2.058;2022-11-15T05:18:29;4.15;;;2.30;;
41327;SDS011;27075;47.636;-2.058;2022-11-15T05:20:55;4.32;;;2.70;;
41327;SDS011;27075;47.636;-2.058;2022-11-15T05:23:21;4.53;;;2.72;;
41327;SDS011;27075;47.636;-2.058;2022-11-15T05:25:47;5.20;;;2.63;;
41327;SDS011;27075;47.636;-2.058;2022-11-15T05:28:13;5.97;;;2.80;;
41327;SDS011;27075;47.636;-2.058;2022-11-15T05:30:39;3.97;;;2.20;;
41327;SDS011;27075;47.636;-2.058;2022-11-15T05:33:05;4.03;;;2.38;;
41327;SDS011;27075;47.636;-2.058;2022-11-15T05:37:57;2.50;;;2.10;;
41327;SDS011;27075;47.636;-2.058;2022-11-15T05:40:23;2.85;;;2.38;;
41327;SDS011;27075;47.636;-2.058;2022-11-15T05:42:49;4.88;;;2.58;;
41327;SDS011;27075;47.636;-2.058;2022-11-15T05:45:16;2.55;;;2.35;;
41327;SDS011;27075;47.636;-2.058;2022-11-15T05:47:42;2.65;;;2.42;;
41327;SDS011;27075;47.636;-2.058;2022-11-15T05:50:11;3.30;;;2.33;;
41327;SDS011;27075;47.636;-2.058;2022-11-15T05:52:38;5.05;;;2.97;;
41327;SDS011;27075;47.636;-2.058;2022-11-15T05:55:04;2.85;;;2.35;;
41327;SDS011;27075;47.636;-2.058;2022-11-15T05:57:31;2.92;;;2.47;;
41327;SDS011;27075;47.636;-2.058;2022-11-15T05:59:57;6.05;;;2.90;;
41327;SDS011;27075;47.636;-2.058;2022-11-15T06:02:23;7.85;;;2.50;;
41327;SDS011;27075;47.636;-2.058;2022-11-15T06:04:49;3.55;;;3.13;;
41327;SDS011;27075;47.636;-2.058;2022-11-15T06:07:15;3.70;;;2.83;;
41327;SDS011;27075;47.636;-2.058;2022-11-15T06:09:41;8.18;;;3.30;;
41327;SDS011;27075;47.636;-2.058;2022-11-15T06:12:07;3.13;;;2.58;;
41327;SDS011;27075;47.636;-2.058;2022-11-15T06:14:33;5.10;;;3.13;;
41327;SDS011;27075;47.636;-2.058;2022-11-15T06:16:59;4.28;;;2.80;;
41327;SDS011;27075;47.636;-2.058;2022-11-15T06:19:25;5.68;;;3.05;;
41327;SDS011;27075;47.636;-2.058;2022-11-15T06:21:51;5.00;;;3.22;;
41327;SDS011;27075;47.636;-2.058;2022-11-15T06:24:17;4.35;;;3.20;;
41327;SDS011;27075;47.636;-2.058;2022-11-15T06:26:43;3.78;;;2.65;;
41327;SDS011;27075;47.636;-2.058;2022-11-15T06:29:09;4.70;;;3.17;;
41327;SDS011;27075;47.636;-2.058;2022-11-15T06:31:35;4.53;;;2.80;;
41327;SDS011;27075;47.636;-2.058;2022-11-15T06:34:01;5.68;;;2.88;;
41327;SDS011;27075;47.636;-2.058;2022-11-15T06:36:27;7.15;;;2.67;;
41327;SDS011;27075;47.636;-2.058;2022-11-15T06:38:53;5.28;;;3.85;;
41327;SDS011;27075;47.636;-2.058;2022-11-15T06:41:19;4.80;;;3.13;;
41327;SDS011;27075;47.636;-2.058;2022-11-15T06:43:46;3.88;;;2.83;;
41327;SDS011;27075;47.636;-2.058;2022-11-15T06:46:12;3.92;;;2.92;;
41327;SDS011;27075;47.636;-2.058;2022-11-15T06:48:38;10.25;;;3.80;;
41327;SDS011;27075;47.636;-2.058;2022-11-15T06:51:05;4.15;;;3.17;;
41327;SDS011;27075;47.636;-2.058;2022-11-15T06:56:00;3.55;;;2.97;;
41327;SDS011;27075;47.636;-2.058;2022-11-15T06:58:26;3.35;;;2.92;;
41327;SDS011;27075;47.636;-2.058;2022-11-15T07:00:52;5.20;;;3.60;;
41327;SDS011;27075;47.636;-2.058;2022-11-15T07:03:19;5.80;;;3.47;;
41327;SDS011;27075;47.636;-2.058;2022-11-15T07:05:52;3.85;;;3.13;;
41327;SDS011;27075;47.636;-2.058;2022-11-15T07:08:18;4.22;;;2.63;;
41327;SDS011;27075;47.636;-2.058;2022-11-15T07:10:44;4.65;;;3.13;;
41327;SDS011;27075;47.636;-2.058;2022-11-15T07:13:10;3.83;;;3.47;;
41327;SDS011;27075;47.636;-2.058;2022-11-15T07:15:36;4.20;;;3.63;;
41327;SDS011;27075;47.636;-2.058;2022-11-15T07:18:02;2.80;;;2.58;;
41327;SDS011;27075;47.636;-2.058;2022-11-15T07:20:29;5.13;;;2.70;;
41327;SDS011;27075;47.636;-2.058;2022-11-15T07:23:02;2.85;;;2.65;;
41327;SDS011;27075;47.636;-2.058;2022-11-15T07:25:28;4.82;;;3.05;;
41327;SDS011;27075;47.636;-2.058;2022-11-15T07:27:57;3.22;;;2.42;;
41327;SDS011;27075;47.636;-2.058;2022-11-15T07:30:24;4.13;;;2.85;;
41327;SDS011;27075;47.636;-2.058;2022-11-15T07:33:08;4.55;;;2.90;;
41327;SDS011;27075;47.636;-2.058;2022-11-15T07:35:34;4.72;;;2.95;;
41327;SDS011;27075;47.636;-2.058;2022-11-15T07:38:01;2.60;;;2.40;;
41327;SDS011;27075;47.636;-2.058;2022-11-15T07:40:28;4.45;;;2.72;;
41327;SDS011;27075;47.636;-2.058;2022-11-15T07:43:00;3.75;;;2.75;;
41327;SDS011;27075;47.636;-2.058;2022-11-15T07:45:26;5.13;;;3.88;;
41327;SDS011;27075;47.636;-2.058;2022-11-15T07:47:52;2.97;;;2.58;;
41327;SDS011;27075;47.636;-2.058;2022-11-15T07:52:44;5.15;;;2.75;;
41327;SDS011;27075;47.636;-2.058;2022-11-15T07:55:11;2.92;;;2.70;;
41327;SDS011;27075;47.636;-2.058;2022-11-15T08:00:04;3.67;;;2.78;;
41327;SDS011;27075;47.636;-2.058;2022-11-15T08:02:30;3.22;;;2.92;;
41327;SDS011;27075;47.636;-2.058;2022-11-15T08:07:22;6.70;;;3.15;;
41327;SDS011;27075;47.636;-2.058;2022-11-15T08:09:48;4.75;;;2.95;;
41327;SDS011;27075;47.636;-2.058;2022-11-15T08:12:14;5.45;;;2.72;;
41327;SDS011;27075;47.636;-2.058;2022-11-15T08:14:40;4.15;;;3.22;;
41327;SDS011;27075;47.636;-2.058;2022-11-15T08:17:06;7.55;;;2.80;;
41327;SDS011;27075;47.636;-2.058;2022-11-15T08:21:58;8.20;;;3.45;;
41327;SDS011;27075;47.636;-2.058;2022-11-15T08:24:24;3.60;;;2.75;;
41327;SDS011;27075;47.636;-2.058;2022-11-15T08:26:50;8.98;;;3.20;;
41327;SDS011;27075;47.636;-2.058;2022-11-15T08:29:16;10.65;;;3.05;;
41327;SDS011;27075;47.636;-2.058;2022-11-15T08:31:42;6.22;;;3.45;;
41327;SDS011;27075;47.636;-2.058;2022-11-15T08:34:08;3.67;;;2.33;;
41327;SDS011;27075;47.636;-2.058;2022-11-15T08:36:35;6.10;;;2.88;;
41327;SDS011;27075;47.636;-2.058;2022-11-15T08:39:01;6.90;;;3.30;;
41327;SDS011;27075;47.636;-2.058;2022-11-15T08:41:31;5.90;;;3.65;;
41327;SDS011;27075;47.636;-2.058;2022-11-15T08:43:57;7.00;;;2.60;;
41327;SDS011;27075;47.636;-2.058;2022-11-15T08:46:23;3.08;;;2.78;;
41327;SDS011;27075;47.636;-2.058;2022-11-15T08:48:49;7.45;;;2.75;;
41327;SDS011;27075;47.636;-2.058;2022-11-15T08:51:15;4.53;;;2.90;;
41327;SDS011;27075;47.636;-2.058;2022-11-15T08:56:08;3.45;;;2.53;;
41327;SDS011;27075;47.636;-2.058;2022-11-15T08:58:34;5.75;;;3.05;;
41327;SDS011;27075;47.636;-2.058;2022-11-15T09:01:00;7.50;;;2.90;;
41327;SDS011;27075;47.636;-2.058;2022-11-15T09:03:26;7.50;;;3.65;;
41327;SDS011;27075;47.636;-2.058;2022-11-15T09:05:55;2.53;;;2.33;;
41327;SDS011;27075;47.636;-2.058;2022-11-15T09:08:22;6.22;;;3.22;;
41327;SDS011;27075;47.636;-2.058;2022-11-15T09:10:48;11.93;;;3.97;;
41327;SDS011;27075;47.636;-2.058;2022-11-15T09:13:14;8.43;;;3.63;;
41327;SDS011;27075;47.636;-2.058;2022-11-15T09:15:40;5.97;;;3.28;;
41327;SDS011;27075;47.636;-2.058;2022-11-15T09:18:06;4.43;;;2.50;;
41327;SDS011;27075;47.636;-2.058;2022-11-15T09:20:32;3.80;;;3.42;;
41327;SDS011;27075;47.636;-2.058;2022-11-15T09:22:59;10.70;;;3.70;;
41327;SDS011;27075;47.636;-2.058;2022-11-15T09:25:26;4.55;;;3.55;;
41327;SDS011;27075;47.636;-2.058;2022-11-15T09:27:52;5.45;;;3.45;;
41327;SDS011;27075;47.636;-2.058;2022-11-15T09:30:18;6.75;;;3.53;;
41327;SDS011;27075;47.636;-2.058;2022-11-15T09:32:44;11.35;;;3.20;;
41327;SDS011;27075;47.636;-2.058;2022-11-15T09:35:10;17.70;;;4.45;;
41327;SDS011;27075;47.636;-2.058;2022-11-15T09:37:36;7.10;;;3.38;;
41327;SDS011;27075;47.636;-2.058;2022-11-15T09:40:02;12.77;;;4.05;;
41327;SDS011;27075;47.636;-2.058;2022-11-15T09:45:06;6.45;;;3.38;;
41327;SDS011;27075;47.636;-2.058;2022-11-15T09:50:28;5.53;;;3.08;;
41327;SDS011;27075;47.636;-2.058;2022-11-15T09:52:56;3.70;;;3.17;;
41327;SDS011;27075;47.636;-2.058;2022-11-15T09:55:24;3.72;;;2.50;;
41327;SDS011;27075;47.636;-2.058;2022-11-15T09:57:55;8.70;;;3.35;;
41327;SDS011;27075;47.636;-2.058;2022-11-15T10:00:57;9.45;;;3.72;;
41327;SDS011;27075;47.636;-2.058;2022-11-15T10:03:30;8.68;;;3.97;;
41327;SDS011;27075;47.636;-2.058;2022-11-15T10:06:00;7.82;;;4.13;;
41327;SDS011;27075;47.636;-2.058;2022-11-15T10:08:33;8.15;;;3.50;;
41327;SDS011;27075;47.636;-2.058;2022-11-15T10:11:03;9.07;;;4.15;;
41327;SDS011;27075;47.636;-2.058;2022-11-15T10:13:35;10.73;;;3.80;;
41327;SDS011;27075;47.636;-2.058;2022-11-15T10:16:21;8.80;;;4.95;;
41327;SDS011;27075;47.636;-2.058;2022-11-15T10:21:19;15.25;;;4.45;;
41327;SDS011;27075;47.636;-2.058;2022-11-15T10:23:46;10.45;;;4.82;;
41327;SDS011;27075;47.636;-2.058;2022-11-15T10:26:13;12.70;;;3.85;;
41327;SDS011;27075;47.636;-2.058;2022-11-15T10:28:40;5.65;;;3.20;;
41327;SDS011;27075;47.636;-2.058;2022-11-15T10:31:28;5.43;;;3.78;;
41327;SDS011;27075;47.636;-2.058;2022-11-15T10:36:37;5.57;;;3.30;;
41327;SDS011;27075;47.636;-2.058;2022-11-15T10:39:03;5.45;;;3.70;;
41327;SDS011;27075;47.636;-2.058;2022-11-15T10:41:34;6.15;;;3.70;;
41327;SDS011;27075;47.636;-2.058;2022-11-15T10:46:33;12.30;;;4.15;;
41327;SDS011;27075;47.636;-2.058;2022-11-15T10:49:17;7.00;;;4.70;;
41327;SDS011;27075;47.636;-2.058;2022-11-15T10:51:47;6.32;;;3.85;;
41327;SDS011;27075;47.636;-2.058;2022-11-15T10:54:15;7.88;;;4.03;;
41327;SDS011;27075;47.636;-2.058;2022-11-15T10:56:47;11.35;;;4.22;;
41327;SDS011;27075;47.636;-2.058;2022-11-15T10:59:16;14.25;;;3.67;;
41327;SDS011;27075;47.636;-2.058;2022-11-15T11:01:45;9.75;;;3.88;;
41327;SDS011;27075;47.636;-2.058;2022-11-15T11:04:12;10.18;;;4.32;;
41327;SDS011;27075;47.636;-2.058;2022-11-15T11:06:51;17.00;;;4.28;;
41327;SDS011;27075;47.636;-2.058;2022-11-15T11:11:53;5.25;;;4.05;;
41327;SDS011;27075;47.636;-2.058;2022-11-15T11:42:55;14.13;;;6.18;;
41327;SDS011;27075;47.636;-2.058;2022-11-15T11:48:11;6.82;;;3.20;;
41327;SDS011;27075;47.636;-2.058;2022-11-15T11:50:38;31.23;;;10.30;;
41327;SDS011;27075;47.636;-2.058;2022-11-15T11:55:50;9.07;;;4.00;;
41327;SDS011;27075;47.636;-2.058;2022-11-15T11:58:19;6.35;;;3.72;;
41327;SDS011;27075;47.636;-2.058;2022-11-15T12:00:47;15.15;;;4.68;;
41327;SDS011;27075;47.636;-2.058;2022-11-15T12:05:44;8.23;;;4.57;;
41327;SDS011;27075;47.636;-2.058;2022-11-15T12:10:41;8.55;;;3.08;;
41327;SDS011;27075;47.636;-2.058;2022-11-15T12:13:12;10.98;;;4.65;;
41327;SDS011;27075;47.636;-2.058;2022-11-15T12:15:43;6.43;;;3.53;;
41327;SDS011;27075;47.636;-2.058;2022-11-15T12:18:12;5.43;;;3.08;;
41327;SDS011;27075;47.636;-2.058;2022-11-15T12:20:39;10.95;;;3.58;;
41327;SDS011;27075;47.636;-2.058;2022-11-15T12:23:14;3.65;;;2.92;;
41327;SDS011;27075;47.636;-2.058;2022-11-15T12:25:45;7.85;;;2.92;;
41327;SDS011;27075;47.636;-2.058;2022-11-15T12:28:15;9.07;;;3.20;;
41327;SDS011;27075;47.636;-2.058;2022-11-15T12:30:44;11.70;;;3.35;;
41327;SDS011;27075;47.636;-2.058;2022-11-15T12:35:59;4.63;;;2.03;;
41327;SDS011;27075;47.636;-2.058;2022-11-15T12:41:17;4.32;;;2.72;;
41327;SDS011;27075;47.636;-2.058;2022-11-15T12:43:44;6.38;;;2.92;;
41327;SDS011;27075;47.636;-2.058;2022-11-15T12:46:18;6.72;;;3.65;;
41327;SDS011;27075;47.636;-2.058;2022-11-15T12:51:14;8.95;;;7.88;;
41327;SDS011;27075;47.636;-2.058;2022-11-15T12:53:40;7.55;;;6.60;;
41327;SDS011;27075;47.636;-2.058;2022-11-15T12:56:09;6.45;;;2.97;;
41327;SDS011;27075;47.636;-2.058;2022-11-15T13:01:10;7.00;;;4.15;;
41327;SDS011;27075;47.636;-2.058;2022-11-15T13:06:39;8.10;;;3.85;;
41327;SDS011;27075;47.636;-2.058;2022-11-15T13:09:49;6.15;;;3.45;;
41327;SDS011;27075;47.636;-2.058;2022-11-15T13:11:52;9.63;;;5.95;;
41327;SDS011;27075;47.636;-2.058;2022-11-15T13:22:20;13.85;;;6.10;;
41327;SDS011;27075;47.636;-2.058;2022-11-15T13:25:04;11.30;;;4.20;;
41327;SDS011;27075;47.636;-2.058;2022-11-15T13:27:40;12.52;;;4.53;;
41327;SDS011;27075;47.636;-2.058;2022-11-15T13:32:32;6.20;;;3.60;;
41327;SDS011;27075;47.636;-2.058;2022-11-15T13:34:58;9.00;;;6.20;;
41327;SDS011;27075;47.636;-2.058;2022-11-15T13:37:27;13.45;;;5.13;;
41327;SDS011;27075;47.636;-2.058;2022-11-15T13:39:54;10.25;;;7.13;;
41327;SDS011;27075;47.636;-2.058;2022-11-15T13:42:20;13.70;;;6.25;;
41327;SDS011;27075;47.636;-2.058;2022-11-15T13:47:13;14.35;;;7.95;;
41327;SDS011;27075;47.636;-2.058;2022-11-15T13:49:39;6.93;;;4.03;;
41327;SDS011;27075;47.636;-2.058;2022-11-15T13:52:06;5.70;;;3.65;;
41327;SDS011;27075;47.636;-2.058;2022-11-15T13:57:17;10.68;;;4.43;;
41327;SDS011;27075;47.636;-2.058;2022-11-15T13:59:45;11.20;;;4.47;;
41327;SDS011;27075;47.636;-2.058;2022-11-15T14:02:16;13.07;;;6.03;;
41327;SDS011;27075;47.636;-2.058;2022-11-15T14:04:58;8.15;;;5.18;;
41327;SDS011;27075;47.636;-2.058;2022-11-15T14:07:26;9.10;;;4.85;;
41327;SDS011;27075;47.636;-2.058;2022-11-15T14:09:53;9.70;;;3.75;;
41327;SDS011;27075;47.636;-2.058;2022-11-15T14:12:35;9.95;;;4.68;;
41327;SDS011;27075;47.636;-2.058;2022-11-15T14:15:46;11.23;;;3.67;;
41327;SDS011;27075;47.636;-2.058;2022-11-15T14:17:47;12.75;;;8.18;;
41327;SDS011;27075;47.636;-2.058;2022-11-15T14:20:24;14.38;;;5.15;;
41327;SDS011;27075;47.636;-2.058;2022-11-15T14:22:53;15.48;;;5.90;;
41327;SDS011;27075;47.636;-2.058;2022-11-15T14:25:23;10.20;;;3.90;;
41327;SDS011;27075;47.636;-2.058;2022-11-15T14:30:34;5.30;;;3.28;;
41327;SDS011;27075;47.636;-2.058;2022-11-15T14:35:27;5.35;;;3.22;;
41327;SDS011;27075;47.636;-2.058;2022-11-15T14:37:53;9.05;;;5.18;;
41327;SDS011;27075;47.636;-2.058;2022-11-15T14:40:20;9.95;;;6.20;;
41327;SDS011;27075;47.636;-2.058;2022-11-15T14:42:47;12.43;;;7.07;;
41327;SDS011;27075;47.636;-2.058;2022-11-15T14:45:15;6.75;;;4.30;;
41327;SDS011;27075;47.636;-2.058;2022-11-15T14:47:41;13.60;;;6.65;;
41327;SDS011;27075;47.636;-2.058;2022-11-15T14:50:11;9.07;;;3.72;;
41327;SDS011;27075;47.636;-2.058;2022-11-15T14:52:38;8.75;;;5.30;;
41327;SDS011;27075;47.636;-2.058;2022-11-15T14:57:30;6.03;;;2.83;;
41327;SDS011;27075;47.636;-2.058;2022-11-15T14:59:56;6.22;;;3.92;;
41327;SDS011;27075;47.636;-2.058;2022-11-15T15:02:25;17.83;;;8.00;;
41327;SDS011;27075;47.636;-2.058;2022-11-15T15:04:52;11.00;;;7.10;;
41327;SDS011;27075;47.636;-2.058;2022-11-15T15:07:18;17.25;;;8.88;;
41327;SDS011;27075;47.636;-2.058;2022-11-15T15:09:44;11.70;;;5.07;;
41327;SDS011;27075;47.636;-2.058;2022-11-15T15:14:39;12.20;;;6.90;;
41327;SDS011;27075;47.636;-2.058;2022-11-15T15:17:05;9.15;;;4.90;;
41327;SDS011;27075;47.636;-2.058;2022-11-15T15:19:31;8.32;;;3.85;;
41327;SDS011;27075;47.636;-2.058;2022-11-15T15:21:58;13.77;;;4.78;;
41327;SDS011;27075;47.636;-2.058;2022-11-15T15:24:25;4.25;;;2.65;;
41327;SDS011;27075;47.636;-2.058;2022-11-15T15:26:50;10.75;;;4.70;;
41327;SDS011;27075;47.636;-2.058;2022-11-15T15:29:16;6.63;;;2.83;;
41327;SDS011;27075;47.636;-2.058;2022-11-15T15:31:42;12.80;;;5.25;;
41327;SDS011;27075;47.636;-2.058;2022-11-15T15:34:08;6.57;;;4.00;;
41327;SDS011;27075;47.636;-2.058;2022-11-15T15:36:34;6.15;;;2.92;;
41327;SDS011;27075;47.636;-2.058;2022-11-15T15:39:00;14.98;;;6.40;;
41327;SDS011;27075;47.636;-2.058;2022-11-15T15:41:26;12.30;;;6.25;;
41327;SDS011;27075;47.636;-2.058;2022-11-15T15:43:53;8.38;;;3.83;;
41327;SDS011;27075;47.636;-2.058;2022-11-15T15:46:19;17.55;;;8.57;;
41327;SDS011;27075;47.636;-2.058;2022-11-15T15:48:45;10.15;;;4.07;;
41327;SDS011;27075;47.636;-2.058;2022-11-15T15:51:11;11.23;;;5.60;;
41327;SDS011;27075;47.636;-2.058;2022-11-15T15:56:04;12.20;;;7.38;;
41327;SDS011;27075;47.636;-2.058;2022-11-15T15:58:33;11.18;;;4.07;;
41327;SDS011;27075;47.636;-2.058;2022-11-15T16:00:58;11.85;;;4.93;;
41327;SDS011;27075;47.636;-2.058;2022-11-15T16:03:25;14.95;;;5.97;;
41327;SDS011;27075;47.636;-2.058;2022-11-15T16:05:52;13.60;;;6.15;;
41327;SDS011;27075;47.636;-2.058;2022-11-15T16:08:19;13.02;;;6.03;;
41327;SDS011;27075;47.636;-2.058;2022-11-15T16:10:45;11.05;;;5.63;;
41327;SDS011;27075;47.636;-2.058;2022-11-15T16:13:11;13.55;;;6.22;;
41327;SDS011;27075;47.636;-2.058;2022-11-15T16:15:37;5.13;;;3.78;;
41327;SDS011;27075;47.636;-2.058;2022-11-15T16:18:04;9.73;;;5.55;;
41327;SDS011;27075;47.636;-2.058;2022-11-15T16:20:34;7.30;;;4.15;;
41327;SDS011;27075;47.636;-2.058;2022-11-15T16:23:01;13.15;;;6.28;;
41327;SDS011;27075;47.636;-2.058;2022-11-15T16:25:28;12.80;;;6.40;;
41327;SDS011;27075;47.636;-2.058;2022-11-15T16:30:20;12.45;;;6.35;;
41327;SDS011;27075;47.636;-2.058;2022-11-15T16:32:47;9.43;;;6.70;;
41327;SDS011;27075;47.636;-2.058;2022-11-15T16:35:14;20.15;;;11.77;;
41327;SDS011;27075;47.636;-2.058;2022-11-15T16:37:41;8.32;;;4.72;;
41327;SDS011;27075;47.636;-2.058;2022-11-15T16:40:15;13.45;;;6.97;;
41327;SDS011;27075;47.636;-2.058;2022-11-15T16:42:42;14.43;;;7.43;;
41327;SDS011;27075;47.636;-2.058;2022-11-15T16:45:10;19.40;;;10.63;;
41327;SDS011;27075;47.636;-2.058;2022-11-15T16:47:37;25.83;;;15.07;;
41327;SDS011;27075;47.636;-2.058;2022-11-15T16:50:03;42.83;;;18.25;;
41327;SDS011;27075;47.636;-2.058;2022-11-15T16:52:29;23.20;;;11.68;;
41327;SDS011;27075;47.636;-2.058;2022-11-15T16:54:55;30.55;;;17.90;;
41327;SDS011;27075;47.636;-2.058;2022-11-15T16:57:21;33.67;;;14.77;;
41327;SDS011;27075;47.636;-2.058;2022-11-15T16:59:47;36.80;;;18.60;;
41327;SDS011;27075;47.636;-2.058;2022-11-15T17:02:13;22.23;;;12.70;;
41327;SDS011;27075;47.636;-2.058;2022-11-15T17:04:39;24.92;;;12.85;;
41327;SDS011;27075;47.636;-2.058;2022-11-15T17:07:05;51.45;;;24.10;;
41327;SDS011;27075;47.636;-2.058;2022-11-15T17:09:31;74.60;;;40.03;;
41327;SDS011;27075;47.636;-2.058;2022-11-15T17:11:58;33.67;;;20.50;;
41327;SDS011;27075;47.636;-2.058;2022-11-15T17:14:24;11.63;;;8.80;;
41327;SDS011;27075;47.636;-2.058;2022-11-15T17:16:50;23.17;;;13.13;;
41327;SDS011;27075;47.636;-2.058;2022-11-15T17:19:17;22.08;;;13.77;;